Portada
METAR-TAF:

METAR-TAF

Aeroports :

Nouakchott, Mauritània

latitud: 18-18-36N, longitud: 015-58-11W, altitud: 3 m

Observació

L'informe es va fer fa 22 minuts, a les 04:30 UTC
Vent 8 kt del Nord-Est
Temperatura 13°C
Humitat 28%
Pressió 1014 hPa
Visibilitat 10 km o més
sense núvols per sota de 1500 mi sense presència de cumulonimbus.

METAR: GQNO 120430Z 05008KT CAVOK 13/M05 Q1014 NOSIG

Hora: 04:52 (04:52 UTC)

Pronòstic

L'informe es va fer fa 5 hores i 52 minuts, a les 23:00 UTC
Pronòstic vàlid del 12 a les 00 UTC al 13 a les 06 UTC
Vent 8 kt del Nord
Visibilitat: 8000 m
Evolucionant progressivament
l' 12 a les 07 UTC al 12 a les 10 UTC
Vent 12 kt del Est/Nord-Est
Evolucionant progressivament
l' 12 a les 18 UTC al 12 a les 21 UTC
Vent 8 kt del Nord

TAF: GQNO 112300Z 1200/1306 01008KT 8000 NSC BECMG 1207/1210 07012KT BECMG 1218/1221 36008KT

Observacions i pronòstics meteorològics de més de 4000 aeroports (METAR i TAF).

Les estacions disponibles són els punts grocs i vermells al mapa.

Posi el ratolí al punt desitjat per veure el nom de l'estació.

Feu clic per veure les observacions i els pronòstics meteorològics.

Per canviar el mapa: feu clic els botons verds amb una creu de color negre per apropar; al botó verd amb un guió per allunyar la imatge; o en les fletxes verdes per a mapes adjacents.


METAR-TAF: